createdAt,value
2023-04-09T00:00:18.110Z,6.20
2023-04-09T00:02:45.499Z,6.20
2023-04-09T00:05:12.863Z,6.20
2023-04-09T00:07:39.861Z,6.20
2023-04-09T00:10:07.389Z,6.20
2023-04-09T00:12:34.480Z,6.20
2023-04-09T00:15:01.531Z,6.30
2023-04-09T00:17:28.460Z,6.30
2023-04-09T00:19:55.475Z,6.30
2023-04-09T00:22:22.518Z,6.30
2023-04-09T00:24:49.544Z,6.30
2023-04-09T00:27:16.637Z,6.30
2023-04-09T00:29:43.802Z,6.30
2023-04-09T00:32:10.980Z,6.30
2023-04-09T00:34:38.978Z,6.30
2023-04-09T00:37:06.183Z,6.30
2023-04-09T00:39:33.161Z,6.30
2023-04-09T00:42:04.403Z,6.30
2023-04-09T00:44:31.494Z,6.30
2023-04-09T00:47:00.807Z,6.30
2023-04-09T00:49:28.080Z,6.30
2023-04-09T00:51:55.349Z,6.30
2023-04-09T00:54:22.746Z,6.30
2023-04-09T00:56:49.922Z,6.30
2023-04-09T00:59:17.102Z,6.30
2023-04-09T01:01:44.212Z,6.20
2023-04-09T01:04:11.649Z,6.20
2023-04-09T01:06:45.892Z,6.20
2023-04-09T01:09:30.018Z,6.30
2023-04-09T01:12:14.615Z,6.30
2023-04-09T01:14:48.034Z,6.30
2023-04-09T01:17:48.728Z,6.30
2023-04-09T01:20:37.519Z,6.30
2023-04-09T01:23:35.018Z,6.30
2023-04-09T01:26:02.646Z,6.30
2023-04-09T01:28:40.738Z,6.30
2023-04-09T01:31:13.600Z,6.30
2023-04-09T01:33:42.319Z,6.30
2023-04-09T01:36:10.483Z,6.30
2023-04-09T01:38:41.444Z,6.30
2023-04-09T01:41:11.263Z,6.20
2023-04-09T01:43:38.713Z,6.20
2023-04-09T01:46:05.738Z,6.20
2023-04-09T01:48:34.251Z,6.10
2023-04-09T01:51:01.826Z,6.10
2023-04-09T01:53:28.827Z,6.00
2023-04-09T01:55:59.067Z,6.00
2023-04-09T01:58:26.780Z,6.00
2023-04-09T02:01:01.427Z,6.00
2023-04-09T02:03:51.316Z,6.00
2023-04-09T02:06:28.503Z,6.00
2023-04-09T02:08:58.548Z,5.90
2023-04-09T02:11:29.053Z,5.90
2023-04-09T02:13:56.960Z,5.80
2023-04-09T02:16:25.472Z,5.80
2023-04-09T02:19:01.387Z,5.80
2023-04-09T02:21:29.705Z,5.80
2023-04-09T02:23:56.905Z,5.70
2023-04-09T02:26:24.574Z,5.70
2023-04-09T02:28:51.928Z,5.70
2023-04-09T02:31:19.253Z,5.80
2023-04-09T02:33:46.284Z,5.80
2023-04-09T02:36:13.971Z,5.80
2023-04-09T02:38:42.600Z,5.80
2023-04-09T02:41:10.196Z,5.80
2023-04-09T02:43:37.676Z,5.80
2023-04-09T02:46:05.144Z,5.80
2023-04-09T02:48:32.189Z,5.80
2023-04-09T02:50:59.187Z,5.70
2023-04-09T02:53:26.469Z,5.70
2023-04-09T02:55:53.543Z,5.80
2023-04-09T02:58:20.571Z,5.80
2023-04-09T03:00:47.537Z,5.80
2023-04-09T03:03:14.749Z,5.80
2023-04-09T03:05:42.008Z,5.80
2023-04-09T03:08:09.037Z,5.90
2023-04-09T03:10:36.042Z,5.90
2023-04-09T03:13:03.044Z,5.90
2023-04-09T03:15:30.008Z,5.90
2023-04-09T03:17:56.996Z,5.90
2023-04-09T03:20:24.035Z,6.00
2023-04-09T03:22:51.176Z,5.90
2023-04-09T03:25:19.794Z,5.90
2023-04-09T03:27:47.243Z,5.90
2023-04-09T03:30:14.231Z,5.90
2023-04-09T03:32:41.215Z,6.00
2023-04-09T03:35:08.566Z,6.00
2023-04-09T03:37:36.363Z,5.90
2023-04-09T03:40:04.049Z,5.90
2023-04-09T03:42:31.425Z,5.90
2023-04-09T03:44:58.481Z,5.90
2023-04-09T03:47:25.607Z,5.90
2023-04-09T03:49:52.844Z,5.90
2023-04-09T03:52:19.821Z,5.90
2023-04-09T03:54:46.810Z,6.00
2023-04-09T03:57:13.783Z,6.00
2023-04-09T03:59:40.839Z,6.00
2023-04-09T04:02:07.969Z,6.00
2023-04-09T04:04:35.196Z,5.90
2023-04-09T04:07:04.026Z,5.90
2023-04-09T04:09:31.056Z,5.90
2023-04-09T04:11:58.983Z,5.90
2023-04-09T04:14:26.207Z,5.90
2023-04-09T04:16:53.167Z,5.90
2023-04-09T04:19:20.101Z,5.90
2023-04-09T04:21:47.093Z,5.90
2023-04-09T04:24:14.071Z,5.90
2023-04-09T04:26:41.041Z,5.90
2023-04-09T04:29:08.052Z,5.90
2023-04-09T04:31:35.055Z,5.90
2023-04-09T04:34:02.052Z,6.00
2023-04-09T04:36:29.021Z,6.00
2023-04-09T04:38:56.026Z,6.00
2023-04-09T04:41:23.057Z,6.00
2023-04-09T04:43:50.011Z,6.00
2023-04-09T04:46:17.027Z,6.00
2023-04-09T04:48:44.097Z,6.00
2023-04-09T04:51:11.031Z,6.00
2023-04-09T04:53:38.059Z,6.00
2023-04-09T04:56:05.492Z,5.90
2023-04-09T04:58:32.504Z,5.90
2023-04-09T05:01:00.762Z,6.00
2023-04-09T05:03:27.890Z,6.00
2023-04-09T05:05:55.061Z,6.00
2023-04-09T05:08:22.141Z,6.00
2023-04-09T05:10:49.160Z,6.10
2023-04-09T05:13:16.173Z,6.10
2023-04-09T05:15:43.295Z,6.10
2023-04-09T05:18:10.544Z,6.10
2023-04-09T05:20:37.585Z,6.10
2023-04-09T05:23:04.634Z,6.10
2023-04-09T05:25:31.622Z,6.10
2023-04-09T05:27:58.626Z,6.20
2023-04-09T05:30:25.654Z,6.20
2023-04-09T05:32:52.925Z,6.20
2023-04-09T05:35:20.128Z,6.20
2023-04-09T05:37:47.173Z,6.30
2023-04-09T05:40:14.963Z,6.30
2023-04-09T05:42:42.089Z,6.30
2023-04-09T05:45:09.908Z,6.30
2023-04-09T05:47:37.108Z,6.30
2023-04-09T05:50:04.626Z,6.30
2023-04-09T05:52:31.611Z,6.30
2023-04-09T05:54:58.551Z,6.30
2023-04-09T05:57:25.607Z,6.30
2023-04-09T05:59:52.569Z,6.30
2023-04-09T06:02:19.745Z,6.30
2023-04-09T06:04:46.960Z,6.30
2023-04-09T06:07:13.951Z,6.30
2023-04-09T06:09:41.086Z,6.30
2023-04-09T06:12:08.092Z,6.30
2023-04-09T06:14:35.041Z,6.30
2023-04-09T06:17:02.072Z,6.40
2023-04-09T06:19:29.235Z,6.40
2023-04-09T06:21:56.558Z,6.40
2023-04-09T06:24:23.648Z,6.50
2023-04-09T06:26:50.707Z,6.50
2023-04-09T06:29:17.732Z,6.60
2023-04-09T06:31:44.763Z,6.70
2023-04-09T06:34:11.756Z,6.80
2023-04-09T06:36:40.510Z,6.90
2023-04-09T06:39:07.643Z,6.90
2023-04-09T06:41:34.732Z,7.00
2023-04-09T06:44:01.840Z,7.00
2023-04-09T06:46:29.059Z,7.10
2023-04-09T06:48:56.139Z,7.10
2023-04-09T06:51:23.238Z,7.20
2023-04-09T06:53:50.496Z,7.20
2023-04-09T06:56:17.654Z,7.30
2023-04-09T06:58:44.708Z,7.40
2023-04-09T07:01:12.883Z,7.60
2023-04-09T07:03:40.759Z,7.80
2023-04-09T07:06:07.959Z,8.00
2023-04-09T07:08:35.297Z,8.00
2023-04-09T07:11:03.489Z,8.10
2023-04-09T07:13:31.423Z,8.10
2023-04-09T07:15:58.499Z,8.10
2023-04-09T07:18:25.584Z,8.20
2023-04-09T07:20:53.672Z,8.30
2023-04-09T07:23:20.679Z,8.40
2023-04-09T07:25:48.469Z,8.30
2023-04-09T07:28:15.557Z,8.30
2023-04-09T07:30:42.563Z,8.30
2023-04-09T07:33:09.774Z,8.30
2023-04-09T07:35:36.897Z,8.30
2023-04-09T07:38:03.921Z,8.30
2023-04-09T07:40:30.964Z,8.40
2023-04-09T07:42:58.332Z,8.40
2023-04-09T07:45:25.908Z,8.40
2023-04-09T07:47:52.977Z,8.50
2023-04-09T07:50:20.113Z,8.50
2023-04-09T07:52:47.504Z,8.60
2023-04-09T07:55:15.454Z,8.60
2023-04-09T07:57:45.365Z,8.70
2023-04-09T08:00:12.964Z,8.70
2023-04-09T08:02:40.292Z,8.80
2023-04-09T08:05:08.152Z,8.80
2023-04-09T08:07:35.141Z,8.80
2023-04-09T08:10:02.151Z,8.80
2023-04-09T08:12:29.282Z,8.80
2023-04-09T08:14:56.487Z,8.80
2023-04-09T08:17:23.536Z,8.80
2023-04-09T08:19:50.883Z,8.80
2023-04-09T08:22:17.841Z,8.70
2023-04-09T08:24:44.854Z,8.70
2023-04-09T08:27:12.235Z,8.70
2023-04-09T08:29:40.637Z,8.70
2023-04-09T08:32:08.256Z,8.60
2023-04-09T08:34:35.332Z,8.70
2023-04-09T08:37:02.897Z,8.50
2023-04-09T08:39:29.909Z,8.50
2023-04-09T08:42:02.670Z,8.50
2023-04-09T08:44:30.788Z,8.50
2023-04-09T08:46:59.800Z,8.40
2023-04-09T08:49:26.880Z,8.50
2023-04-09T08:51:53.914Z,8.50
2023-04-09T08:54:20.993Z,8.70
2023-04-09T08:56:48.062Z,8.70
2023-04-09T08:59:18.808Z,8.90
2023-04-09T09:01:48.066Z,9.00
2023-04-09T09:04:15.600Z,9.00
2023-04-09T09:06:42.853Z,9.20
2023-04-09T09:09:11.125Z,9.30
2023-04-09T09:11:40.570Z,9.40
2023-04-09T09:14:12.314Z,9.50
2023-04-09T09:16:43.418Z,9.60
2023-04-09T09:19:31.608Z,9.70
2023-04-09T09:22:06.849Z,9.80
2023-04-09T09:24:34.695Z,9.80
2023-04-09T09:27:02.893Z,9.80
2023-04-09T09:29:32.010Z,9.80
2023-04-09T09:31:59.072Z,9.70
2023-04-09T09:34:26.197Z,9.80
2023-04-09T09:36:53.440Z,9.80
2023-04-09T09:39:22.116Z,9.90
2023-04-09T09:42:06.701Z,10.00
2023-04-09T09:44:34.153Z,10.10
2023-04-09T09:47:03.782Z,10.20
2023-04-09T09:49:30.833Z,10.40
2023-04-09T09:52:02.999Z,10.50
2023-04-09T09:54:38.825Z,10.50
2023-04-09T09:57:09.906Z,10.60
2023-04-09T09:59:51.034Z,10.70
2023-04-09T10:02:30.983Z,10.80
2023-04-09T10:05:01.375Z,10.80
2023-04-09T10:07:28.902Z,10.90
2023-04-09T10:09:57.532Z,10.90
2023-04-09T10:12:26.153Z,11.00
2023-04-09T10:14:54.463Z,11.00
2023-04-09T10:17:21.903Z,11.00
2023-04-09T10:20:13.039Z,11.20
2023-04-09T10:22:41.766Z,11.20
2023-04-09T10:25:09.468Z,11.40
2023-04-09T10:27:37.083Z,11.50
2023-04-09T10:30:07.580Z,11.60
2023-04-09T10:32:36.380Z,11.60
2023-04-09T10:35:04.556Z,11.50
2023-04-09T10:37:31.946Z,11.60
2023-04-09T10:39:59.116Z,11.60
2023-04-09T10:42:43.384Z,11.70
2023-04-09T10:45:15.182Z,11.80
2023-04-09T10:47:44.163Z,12.00
2023-04-09T10:50:32.681Z,12.20
2023-04-09T10:53:01.032Z,12.30
2023-04-09T10:55:37.223Z,12.50
2023-04-09T10:58:11.246Z,12.60
2023-04-09T11:00:40.984Z,12.70
2023-04-09T11:03:20.878Z,12.80
2023-04-09T11:05:54.297Z,12.70
2023-04-09T11:08:22.395Z,12.60
2023-04-09T11:10:52.040Z,12.50
2023-04-09T11:13:21.064Z,12.30
2023-04-09T11:15:48.172Z,12.20
2023-04-09T11:18:24.998Z,12.40
2023-04-09T11:20:59.988Z,12.40
2023-04-09T11:23:27.847Z,12.30
2023-04-09T11:25:56.406Z,12.30
2023-04-09T11:28:24.542Z,12.20
2023-04-09T11:30:52.395Z,12.20
2023-04-09T11:33:20.407Z,12.10
2023-04-09T11:35:48.253Z,12.00
2023-04-09T11:38:15.430Z,11.90
2023-04-09T11:40:48.708Z,11.90
2023-04-09T11:43:16.919Z,11.90
2023-04-09T11:45:45.113Z,12.10
2023-04-09T11:48:13.357Z,12.10
2023-04-09T11:50:40.822Z,12.10
2023-04-09T11:53:21.587Z,12.00
2023-04-09T11:55:51.638Z,12.10
2023-04-09T11:58:19.187Z,12.50
2023-04-09T12:00:46.286Z,12.70
2023-04-09T12:03:13.961Z,12.90
2023-04-09T12:05:50.480Z,12.90
2023-04-09T12:08:25.016Z,12.80
2023-04-09T12:10:53.920Z,12.80
2023-04-09T12:13:21.583Z,12.80
2023-04-09T12:15:50.159Z,12.70
2023-04-09T12:18:17.285Z,12.80
2023-04-09T12:20:47.531Z,12.90
2023-04-09T12:23:14.714Z,13.00
2023-04-09T12:25:45.683Z,13.10
2023-04-09T12:28:18.769Z,13.30
2023-04-09T12:30:46.872Z,13.40
2023-04-09T12:33:13.956Z,13.40
2023-04-09T12:35:41.120Z,13.30
2023-04-09T12:38:08.355Z,13.30
2023-04-09T12:40:38.814Z,13.40
2023-04-09T12:43:06.388Z,13.50
2023-04-09T12:45:33.568Z,13.50
2023-04-09T12:48:00.671Z,13.40
2023-04-09T12:50:28.492Z,13.40
2023-04-09T12:52:55.567Z,13.40
2023-04-09T12:55:22.729Z,13.30
2023-04-09T12:57:52.071Z,13.30
2023-04-09T13:00:19.229Z,13.30
2023-04-09T13:02:46.690Z,13.10
2023-04-09T13:05:14.029Z,13.10
2023-04-09T13:07:43.102Z,13.00
2023-04-09T13:10:10.864Z,12.90
2023-04-09T13:12:37.878Z,12.80
2023-04-09T13:15:05.295Z,12.60
2023-04-09T13:17:32.352Z,12.60
2023-04-09T13:19:59.394Z,12.50
2023-04-09T13:22:26.388Z,12.40
2023-04-09T13:24:53.303Z,12.40
2023-04-09T13:27:20.941Z,12.30
2023-04-09T13:29:47.947Z,12.20
2023-04-09T13:32:15.033Z,12.10
2023-04-09T13:34:42.069Z,11.90
2023-04-09T13:37:09.148Z,11.70
2023-04-09T13:39:36.278Z,11.60
2023-04-09T13:42:12.654Z,11.20
2023-04-09T13:44:42.608Z,11.00
2023-04-09T13:47:11.498Z,10.70
2023-04-09T13:49:38.835Z,10.60
2023-04-09T13:52:06.422Z,10.50
2023-04-09T13:54:34.394Z,10.50
2023-04-09T13:57:01.784Z,10.30
2023-04-09T13:59:28.951Z,10.20
2023-04-09T14:01:56.756Z,10.20
2023-04-09T14:04:24.065Z,10.10
2023-04-09T14:06:51.165Z,9.90
2023-04-09T14:09:18.183Z,9.80
2023-04-09T14:11:45.512Z,9.80
2023-04-09T14:14:12.558Z,9.80
2023-04-09T14:16:39.713Z,9.80
2023-04-09T14:19:07.508Z,9.90
2023-04-09T14:21:34.828Z,9.80
2023-04-09T14:24:01.908Z,9.90
2023-04-09T14:26:29.322Z,9.80
2023-04-09T14:28:56.479Z,9.90
2023-04-09T14:31:23.675Z,10.00
2023-04-09T14:33:50.894Z,10.00
2023-04-09T14:36:18.431Z,10.10
2023-04-09T14:38:46.031Z,10.20
2023-04-09T14:41:13.012Z,10.20
2023-04-09T14:43:40.002Z,10.20
2023-04-09T14:46:11.884Z,10.30
2023-04-09T14:48:40.250Z,10.40
2023-04-09T14:51:09.340Z,10.50
2023-04-09T14:53:36.513Z,10.60
2023-04-09T14:56:04.034Z,10.70
2023-04-09T14:58:31.210Z,10.70
2023-04-09T15:00:58.259Z,10.80
2023-04-09T15:03:25.586Z,10.80
2023-04-09T15:05:52.894Z,10.90
2023-04-09T15:08:19.951Z,10.90
2023-04-09T15:10:46.949Z,10.90
2023-04-09T15:13:14.047Z,10.80
2023-04-09T15:15:41.852Z,10.80
2023-04-09T15:18:08.887Z,10.80
2023-04-09T15:20:43.502Z,10.80
2023-04-09T15:23:11.200Z,10.80
2023-04-09T15:25:38.492Z,10.80
2023-04-09T15:28:06.160Z,10.80
2023-04-09T15:30:35.400Z,10.80
2023-04-09T15:33:02.591Z,10.80
2023-04-09T15:35:30.597Z,10.70
2023-04-09T15:37:57.787Z,10.70
2023-04-09T15:40:24.947Z,10.70
2023-04-09T15:42:52.016Z,10.80
2023-04-09T15:45:19.134Z,10.90
2023-04-09T15:47:46.616Z,11.00
2023-04-09T15:50:14.649Z,11.00
2023-04-09T15:52:42.140Z,11.00
2023-04-09T15:55:09.670Z,11.00
2023-04-09T15:57:38.387Z,10.90
2023-04-09T16:00:07.990Z,10.90
2023-04-09T16:02:36.981Z,10.90
2023-04-09T16:05:04.205Z,10.80
2023-04-09T16:07:31.755Z,10.80
2023-04-09T16:10:00.010Z,10.70
2023-04-09T16:12:28.012Z,10.70
2023-04-09T16:14:54.985Z,10.70
2023-04-09T16:17:21.972Z,10.60
2023-04-09T16:19:49.029Z,10.70
2023-04-09T16:22:16.114Z,10.70
2023-04-09T16:24:43.759Z,10.60
2023-04-09T16:27:11.268Z,10.60
2023-04-09T16:29:38.244Z,10.60
2023-04-09T16:32:06.007Z,10.50
2023-04-09T16:34:33.136Z,10.60
2023-04-09T16:37:00.175Z,10.50
2023-04-09T16:39:27.169Z,10.50
2023-04-09T16:41:54.226Z,10.50
2023-04-09T16:44:21.256Z,10.40
2023-04-09T16:46:49.250Z,10.40
2023-04-09T16:49:16.398Z,10.30
2023-04-09T16:51:43.632Z,10.30
2023-04-09T16:54:10.989Z,10.30
2023-04-09T16:56:38.119Z,10.20
2023-04-09T16:59:05.279Z,10.20
2023-04-09T17:01:32.601Z,10.20
2023-04-09T17:04:00.952Z,10.10
2023-04-09T17:06:28.024Z,10.10
2023-04-09T17:08:55.134Z,10.00
2023-04-09T17:11:23.742Z,9.90
2023-04-09T17:13:50.792Z,9.90
2023-04-09T17:16:18.482Z,9.80
2023-04-09T17:18:45.538Z,9.70
2023-04-09T17:21:12.716Z,9.60
2023-04-09T17:23:39.780Z,9.50
2023-04-09T17:26:07.173Z,9.40
2023-04-09T17:28:34.371Z,9.30
2023-04-09T17:31:01.808Z,9.20
2023-04-09T17:33:28.920Z,9.10
2023-04-09T17:35:57.909Z,9.00
2023-04-09T17:38:27.076Z,8.90
2023-04-09T17:40:54.450Z,8.90
2023-04-09T17:43:21.453Z,8.90
2023-04-09T17:45:49.429Z,8.80
2023-04-09T17:48:16.729Z,8.80
2023-04-09T17:50:43.893Z,8.80
2023-04-09T17:53:11.025Z,8.80
2023-04-09T17:55:38.074Z,8.80
2023-04-09T17:58:05.118Z,8.70
2023-04-09T18:00:32.296Z,8.70
2023-04-09T18:02:59.863Z,8.60
2023-04-09T18:05:27.317Z,8.60
2023-04-09T18:07:56.630Z,8.60
2023-04-09T18:10:23.816Z,8.50
2023-04-09T18:12:50.842Z,8.40
2023-04-09T18:15:18.885Z,8.40
2023-04-09T18:17:46.469Z,8.30
2023-04-09T18:20:15.600Z,8.20
2023-04-09T18:22:43.298Z,8.10
2023-04-09T18:25:10.766Z,8.10
2023-04-09T18:27:37.986Z,8.00
2023-04-09T18:30:05.580Z,8.00
2023-04-09T18:32:32.633Z,7.90
2023-04-09T18:34:59.881Z,7.80
2023-04-09T18:37:27.891Z,7.80
2023-04-09T18:39:55.022Z,7.70
2023-04-09T18:42:22.060Z,7.70
2023-04-09T18:44:49.190Z,7.60
2023-04-09T18:47:16.258Z,7.60
2023-04-09T18:49:43.363Z,7.50
2023-04-09T18:52:10.388Z,7.40
2023-04-09T18:54:39.081Z,7.40
2023-04-09T18:57:06.687Z,7.40
2023-04-09T18:59:35.109Z,7.30
2023-04-09T19:02:06.355Z,7.30
2023-04-09T19:04:39.809Z,7.20
2023-04-09T19:07:07.645Z,7.20
2023-04-09T19:09:35.044Z,7.10
2023-04-09T19:12:02.292Z,7.10
2023-04-09T19:14:29.679Z,7.00
2023-04-09T19:16:57.273Z,7.00
2023-04-09T19:19:24.326Z,7.00
2023-04-09T19:21:51.655Z,7.00
2023-04-09T19:24:18.695Z,6.90
2023-04-09T19:26:45.955Z,6.90
2023-04-09T19:29:13.434Z,6.80
2023-04-09T19:31:41.624Z,6.80
2023-04-09T19:34:10.914Z,6.70
2023-04-09T19:36:38.306Z,6.70
2023-04-09T19:39:06.178Z,6.60
2023-04-09T19:41:33.362Z,6.60
2023-04-09T19:44:01.578Z,6.60
2023-04-09T19:46:28.688Z,6.50
2023-04-09T19:48:56.806Z,6.50
2023-04-09T19:51:23.909Z,6.50
2023-04-09T19:53:51.226Z,6.40
2023-04-09T19:56:19.065Z,6.40
2023-04-09T19:58:46.211Z,6.30
2023-04-09T20:01:13.342Z,6.30
2023-04-09T20:03:40.844Z,6.30
2023-04-09T20:06:10.313Z,6.30
2023-04-09T20:08:38.410Z,6.20
2023-04-09T20:11:06.024Z,6.20
2023-04-09T20:13:33.417Z,6.20
2023-04-09T20:16:00.929Z,6.20
2023-04-09T20:18:28.831Z,6.10
2023-04-09T20:20:56.113Z,6.10
2023-04-09T20:23:23.201Z,6.10
2023-04-09T20:25:55.100Z,6.00
2023-04-09T20:28:22.264Z,6.00
2023-04-09T20:30:49.466Z,6.00
2023-04-09T20:33:17.798Z,6.00
2023-04-09T20:35:44.944Z,5.90
2023-04-09T20:38:11.982Z,5.90
2023-04-09T20:40:39.003Z,5.90
2023-04-09T20:43:06.075Z,5.90
2023-04-09T20:45:33.102Z,5.80
2023-04-09T20:48:00.204Z,5.80
2023-04-09T20:50:29.102Z,5.80
2023-04-09T20:52:56.175Z,5.80
2023-04-09T20:55:23.848Z,5.70
2023-04-09T20:57:51.920Z,5.70
2023-04-09T21:00:19.067Z,5.70
2023-04-09T21:02:46.331Z,5.70
2023-04-09T21:05:22.536Z,5.60
2023-04-09T21:07:52.415Z,5.60
2023-04-09T21:10:19.755Z,5.60
2023-04-09T21:12:46.831Z,5.60
2023-04-09T21:15:13.943Z,5.60
2023-04-09T21:17:41.014Z,5.60
2023-04-09T21:20:08.915Z,5.60
2023-04-09T21:22:36.156Z,5.60
2023-04-09T21:25:03.708Z,5.70
2023-04-09T21:27:31.361Z,5.70
2023-04-09T21:29:58.896Z,5.80
2023-04-09T21:32:26.127Z,5.80
2023-04-09T21:34:53.467Z,5.80
2023-04-09T21:37:20.573Z,5.80
2023-04-09T21:39:48.982Z,5.80
2023-04-09T21:42:16.127Z,5.90
2023-04-09T21:44:43.115Z,5.90
2023-04-09T21:47:12.380Z,5.90
2023-04-09T21:49:40.775Z,5.90
2023-04-09T21:52:14.470Z,5.90
2023-04-09T21:54:43.599Z,5.90
2023-04-09T21:57:11.031Z,5.90
2023-04-09T21:59:38.572Z,6.00
2023-04-09T22:02:05.871Z,5.90
2023-04-09T22:04:35.290Z,5.90
2023-04-09T22:07:03.412Z,5.90
2023-04-09T22:09:31.257Z,5.90
2023-04-09T22:11:58.858Z,5.90
2023-04-09T22:14:29.456Z,5.90
2023-04-09T22:16:58.610Z,5.90
2023-04-09T22:19:26.412Z,5.90
2023-04-09T22:21:53.769Z,5.90
2023-04-09T22:24:26.893Z,5.90
2023-04-09T22:26:54.215Z,5.90
2023-04-09T22:29:21.212Z,5.90
2023-04-09T22:31:48.204Z,5.90
2023-04-09T22:34:21.320Z,5.90
2023-04-09T22:36:49.452Z,5.90
2023-04-09T22:39:16.789Z,5.90
2023-04-09T22:41:44.024Z,5.90
2023-04-09T22:44:11.095Z,5.90
2023-04-09T22:46:38.234Z,5.90
2023-04-09T22:49:06.271Z,5.90
2023-04-09T22:51:36.333Z,5.90
2023-04-09T22:54:03.581Z,5.90
2023-04-09T22:56:32.126Z,5.90
2023-04-09T22:58:59.398Z,5.90
2023-04-09T23:01:27.241Z,5.90
2023-04-09T23:03:54.841Z,5.90
2023-04-09T23:06:22.997Z,5.90
2023-04-09T23:08:50.718Z,5.90
2023-04-09T23:11:17.841Z,5.90
2023-04-09T23:13:44.922Z,5.90
2023-04-09T23:16:12.011Z,5.90
2023-04-09T23:18:39.282Z,5.90
2023-04-09T23:21:10.821Z,5.80
2023-04-09T23:23:38.940Z,5.80
2023-04-09T23:26:06.488Z,5.80
2023-04-09T23:28:33.562Z,5.80
2023-04-09T23:31:00.822Z,5.80
2023-04-09T23:33:27.999Z,5.80
2023-04-09T23:35:55.156Z,5.70
2023-04-09T23:38:22.273Z,5.80
2023-04-09T23:40:49.628Z,5.80
2023-04-09T23:43:16.993Z,5.80
2023-04-09T23:45:44.841Z,5.80
2023-04-09T23:48:12.765Z,5.80
2023-04-09T23:50:43.479Z,5.80
2023-04-09T23:53:11.079Z,5.80
2023-04-09T23:55:38.634Z,5.80
2023-04-09T23:58:05.765Z,5.70
